createdAt,value
2018-12-31T00:00:32.330Z,5.80
2018-12-31T00:03:02.358Z,6.00
2018-12-31T00:05:33.883Z,7.00
2018-12-31T00:08:04.061Z,6.67
2018-12-31T00:10:34.093Z,6.50
2018-12-31T00:13:04.043Z,6.07
2018-12-31T00:15:34.275Z,5.67
2018-12-31T00:18:04.211Z,6.30
2018-12-31T00:20:34.667Z,6.67
2018-12-31T00:23:04.552Z,5.53
2018-12-31T00:25:34.394Z,5.90
2018-12-31T00:28:04.385Z,6.90
2018-12-31T00:30:34.258Z,6.97
2018-12-31T00:33:04.140Z,7.40
2018-12-31T00:35:34.014Z,6.50
2018-12-31T00:38:03.949Z,7.33
2018-12-31T00:40:34.098Z,6.30
2018-12-31T00:43:03.970Z,5.87
2018-12-31T00:45:34.110Z,6.80
2018-12-31T00:48:04.455Z,6.23
2018-12-31T00:50:34.326Z,7.23
2018-12-31T00:53:04.275Z,7.00
2018-12-31T00:55:35.010Z,7.00
2018-12-31T00:58:05.079Z,8.20
2018-12-31T01:00:35.115Z,9.50
2018-12-31T01:03:05.136Z,10.63
2018-12-31T01:05:35.016Z,8.37
2018-12-31T01:08:04.842Z,8.50
2018-12-31T01:10:34.775Z,10.07
2018-12-31T01:13:04.666Z,9.50
2018-12-31T01:15:34.803Z,9.97
2018-12-31T01:18:05.108Z,9.20
2018-12-31T01:20:35.026Z,9.97
2018-12-31T01:23:04.883Z,9.50
2018-12-31T01:25:34.749Z,10.73
2018-12-31T01:28:04.570Z,9.80
2018-12-31T01:30:34.487Z,10.30
2018-12-31T01:33:04.362Z,12.77
2018-12-31T01:35:34.218Z,10.87
2018-12-31T01:38:04.097Z,10.27
2018-12-31T01:40:34.016Z,12.13
2018-12-31T01:43:03.984Z,11.70
2018-12-31T01:45:33.821Z,11.37
2018-12-31T01:48:03.975Z,10.97
2018-12-31T01:50:34.129Z,11.50
2018-12-31T01:53:04.003Z,12.23
2018-12-31T01:55:33.880Z,12.70
2018-12-31T01:58:04.020Z,12.90
2018-12-31T02:00:33.933Z,13.20
2018-12-31T02:03:03.814Z,13.57
2018-12-31T02:05:33.796Z,14.00
2018-12-31T02:08:04.003Z,17.20
2018-12-31T02:10:33.919Z,15.73
2018-12-31T02:13:03.731Z,16.23
2018-12-31T02:15:33.949Z,16.17
2018-12-31T02:18:04.125Z,17.50
2018-12-31T02:20:34.389Z,19.20
2018-12-31T02:23:04.351Z,17.63
2018-12-31T02:25:34.254Z,18.53
2018-12-31T02:28:04.110Z,18.63
2018-12-31T02:30:33.991Z,18.60
2018-12-31T02:33:03.842Z,21.10
2018-12-31T02:35:34.012Z,19.50
2018-12-31T02:38:03.878Z,18.13
2018-12-31T02:40:33.728Z,18.77
2018-12-31T02:43:03.592Z,20.20
2018-12-31T02:45:33.452Z,19.10
2018-12-31T02:48:03.646Z,18.93
2018-12-31T02:50:33.598Z,18.80
2018-12-31T02:53:03.453Z,16.63
2018-12-31T02:55:33.279Z,18.37
2018-12-31T02:58:03.153Z,17.33
2018-12-31T03:00:33.350Z,17.30
2018-12-31T03:03:03.179Z,19.77
2018-12-31T03:05:33.045Z,17.53
2018-12-31T03:08:02.905Z,17.50
2018-12-31T03:10:32.997Z,18.00
2018-12-31T03:13:03.107Z,19.97
2018-12-31T03:15:32.955Z,19.00
2018-12-31T03:18:03.147Z,18.30
2018-12-31T03:20:32.979Z,18.83
2018-12-31T03:23:03.093Z,18.70
2018-12-31T03:25:32.943Z,17.60
2018-12-31T03:28:03.229Z,18.10
2018-12-31T03:30:33.200Z,17.07
2018-12-31T03:33:03.061Z,18.70
2018-12-31T03:35:33.583Z,18.10
2018-12-31T03:38:03.535Z,17.70
2018-12-31T03:40:33.498Z,20.80
2018-12-31T03:43:03.318Z,20.17
2018-12-31T03:45:34.027Z,17.70
2018-12-31T03:48:03.887Z,19.53
2018-12-31T03:50:34.077Z,20.47
2018-12-31T03:53:03.951Z,20.07
2018-12-31T03:55:33.775Z,20.40
2018-12-31T03:58:03.928Z,20.80
2018-12-31T04:00:33.834Z,22.53
2018-12-31T04:03:03.687Z,22.73
2018-12-31T04:05:33.592Z,24.43
2018-12-31T04:08:03.450Z,25.23
2018-12-31T04:10:33.360Z,27.60
2018-12-31T04:13:03.321Z,28.27
2018-12-31T04:15:33.284Z,27.57
2018-12-31T04:18:03.252Z,28.43
2018-12-31T04:20:33.474Z,30.57
2018-12-31T04:23:03.386Z,31.07
2018-12-31T04:25:33.616Z,31.00
2018-12-31T04:28:03.470Z,30.13
2018-12-31T04:30:33.619Z,30.70
2018-12-31T04:33:03.490Z,30.90
2018-12-31T04:35:33.342Z,29.20
2018-12-31T04:38:03.208Z,29.07
2018-12-31T04:40:33.715Z,30.37
2018-12-31T04:43:03.587Z,32.90
2018-12-31T04:45:33.673Z,28.83
2018-12-31T04:48:03.517Z,31.00
2018-12-31T04:50:33.388Z,32.00
2018-12-31T04:53:03.239Z,31.33
2018-12-31T04:55:33.103Z,31.80
2018-12-31T04:58:03.185Z,31.70
2018-12-31T05:00:33.057Z,31.77
2018-12-31T05:03:03.238Z,30.30
2018-12-31T05:05:33.206Z,29.87
2018-12-31T05:08:03.089Z,29.40
2018-12-31T05:10:33.338Z,33.20
2018-12-31T05:13:04.086Z,29.73
2018-12-31T05:15:33.922Z,30.53
2018-12-31T05:18:03.792Z,30.20
2018-12-31T05:20:33.638Z,31.10
2018-12-31T05:23:05.351Z,26.10
2018-12-31T05:25:35.246Z,25.80
2018-12-31T05:28:05.121Z,25.57
2018-12-31T05:30:34.974Z,25.10
2018-12-31T05:33:04.887Z,26.60
2018-12-31T05:35:34.756Z,24.47
2018-12-31T05:38:04.616Z,25.83
2018-12-31T05:40:34.473Z,26.00
2018-12-31T05:43:04.424Z,26.77
2018-12-31T05:45:34.275Z,25.80
2018-12-31T05:48:04.137Z,24.97
2018-12-31T05:50:34.015Z,25.70
2018-12-31T05:53:03.827Z,24.03
2018-12-31T05:55:33.694Z,25.23
2018-12-31T05:58:03.551Z,24.20
2018-12-31T06:00:34.081Z,25.03
2018-12-31T06:03:03.926Z,24.37
2018-12-31T06:05:34.100Z,22.80
2018-12-31T06:08:04.374Z,21.53
2018-12-31T06:10:34.232Z,26.70
2018-12-31T06:13:04.091Z,25.57
2018-12-31T06:15:34.263Z,24.90
2018-12-31T06:18:04.131Z,24.20
2018-12-31T06:20:34.416Z,25.60
2018-12-31T06:23:04.277Z,23.80
2018-12-31T06:25:34.436Z,23.90
2018-12-31T06:28:04.342Z,25.90
2018-12-31T06:30:34.465Z,24.83
2018-12-31T06:33:04.297Z,23.70
2018-12-31T06:35:34.237Z,22.10
2018-12-31T06:38:04.636Z,23.23
2018-12-31T06:40:34.518Z,22.47
2018-12-31T06:43:04.747Z,22.90
2018-12-31T06:45:34.706Z,23.80
2018-12-31T06:48:04.609Z,23.17
2018-12-31T06:50:34.472Z,24.47
2018-12-31T06:53:04.318Z,23.57
2018-12-31T06:55:34.146Z,24.17
2018-12-31T06:58:04.029Z,24.60
2018-12-31T07:00:33.886Z,24.60
2018-12-31T07:03:03.772Z,22.07
2018-12-31T07:05:33.629Z,22.20
2018-12-31T07:08:03.561Z,22.40
2018-12-31T07:10:33.427Z,21.50
2018-12-31T07:13:03.311Z,23.30
2018-12-31T07:15:33.188Z,24.60
2018-12-31T07:18:03.105Z,24.30
2018-12-31T07:20:32.961Z,24.70
2018-12-31T07:23:03.207Z,22.87
2018-12-31T07:25:33.128Z,25.13
2018-12-31T07:28:02.974Z,26.33
2018-12-31T07:30:32.801Z,25.90
2018-12-31T07:33:03.020Z,23.33
2018-12-31T07:35:32.863Z,25.07
2018-12-31T07:38:22.228Z,25.00
2018-12-31T07:41:11.332Z,27.30
2018-12-31T07:44:01.325Z,25.77
2018-12-31T07:46:50.455Z,25.93
2018-12-31T07:49:39.553Z,25.33
2018-12-31T07:52:28.641Z,23.70
2018-12-31T07:55:17.771Z,24.00
2018-12-31T07:58:07.219Z,27.07
2018-12-31T08:00:37.506Z,25.47
2018-12-31T08:03:07.756Z,24.50
2018-12-31T08:05:37.658Z,26.60
2018-12-31T08:08:07.591Z,24.77
2018-12-31T08:10:37.485Z,24.53
2018-12-31T08:13:07.331Z,26.03
2018-12-31T08:15:37.581Z,24.53
2018-12-31T08:18:08.939Z,27.00
2018-12-31T08:20:38.850Z,27.30
2018-12-31T08:23:08.711Z,26.43
2018-12-31T08:25:38.923Z,26.63
2018-12-31T08:28:08.861Z,26.63
2018-12-31T08:30:39.421Z,27.40
2018-12-31T08:33:09.341Z,27.47
2018-12-31T08:35:39.252Z,28.70
2018-12-31T08:38:09.474Z,29.33
2018-12-31T08:40:39.384Z,31.37
2018-12-31T08:43:09.395Z,29.00
2018-12-31T08:45:39.408Z,30.73
2018-12-31T08:48:09.547Z,30.07
2018-12-31T08:50:40.019Z,31.77
2018-12-31T08:53:10.900Z,28.10
2018-12-31T08:55:40.751Z,26.17
2018-12-31T08:58:10.630Z,26.03
2018-12-31T09:00:40.589Z,26.70
2018-12-31T09:03:10.748Z,27.53
2018-12-31T09:05:40.918Z,26.50
2018-12-31T09:08:10.794Z,27.70
2018-12-31T09:10:40.912Z,28.70
2018-12-31T09:13:10.843Z,26.23
2018-12-31T09:15:41.498Z,24.07
2018-12-31T09:18:12.338Z,24.10
2018-12-31T09:20:42.483Z,27.60
2018-12-31T09:23:12.365Z,28.33
2018-12-31T09:25:42.219Z,23.77
2018-12-31T09:28:12.429Z,27.27
2018-12-31T09:30:42.701Z,24.20
2018-12-31T09:33:12.799Z,24.37
2018-12-31T09:35:43.399Z,26.13
2018-12-31T09:38:13.528Z,24.23
2018-12-31T09:40:43.661Z,23.43
2018-12-31T09:43:13.504Z,20.97
2018-12-31T09:45:43.713Z,24.23
2018-12-31T09:48:13.901Z,22.80
2018-12-31T09:50:44.350Z,18.70
2018-12-31T09:53:14.172Z,18.83
2018-12-31T09:55:44.358Z,18.83
2018-12-31T09:58:14.218Z,22.03
2018-12-31T10:00:44.024Z,20.20
2018-12-31T10:03:13.902Z,20.07
2018-12-31T10:05:44.344Z,20.63
2018-12-31T10:08:14.187Z,22.90
2018-12-31T10:10:44.360Z,21.70
2018-12-31T10:13:14.211Z,20.60
2018-12-31T10:15:44.115Z,23.30
2018-12-31T10:18:14.263Z,26.27
2018-12-31T10:20:44.087Z,25.70
2018-12-31T10:23:14.268Z,27.73
2018-12-31T10:25:44.155Z,27.83
2018-12-31T10:28:14.291Z,27.70
2018-12-31T10:30:45.680Z,26.40
2018-12-31T10:33:15.687Z,25.80
2018-12-31T10:35:45.576Z,25.50
2018-12-31T10:38:15.514Z,24.20
2018-12-31T10:40:45.371Z,24.27
2018-12-31T10:43:15.237Z,20.70
2018-12-31T10:45:45.154Z,19.50
2018-12-31T10:48:14.991Z,19.80
2018-12-31T10:50:46.316Z,19.93
2018-12-31T10:53:16.238Z,17.77
2018-12-31T10:55:47.968Z,18.40
2018-12-31T10:58:18.508Z,16.80
2018-12-31T11:00:48.839Z,15.77
2018-12-31T11:03:18.779Z,13.77
2018-12-31T11:05:48.957Z,13.60
2018-12-31T11:08:18.868Z,12.73
2018-12-31T11:10:48.922Z,12.73
2018-12-31T11:13:18.825Z,12.07
2018-12-31T11:15:48.994Z,11.73
2018-12-31T11:18:18.825Z,11.57
2018-12-31T11:20:48.943Z,12.00
2018-12-31T11:23:19.025Z,12.23
2018-12-31T11:25:48.898Z,9.83
2018-12-31T11:28:18.748Z,9.40
2018-12-31T11:30:48.981Z,8.67
2018-12-31T11:33:18.868Z,7.40
2018-12-31T11:35:49.022Z,8.13
2018-12-31T11:38:19.137Z,7.30
2018-12-31T11:40:48.953Z,7.60
2018-12-31T11:43:18.798Z,7.63
2018-12-31T11:45:48.640Z,6.47
2018-12-31T11:48:18.508Z,7.60
2018-12-31T11:50:48.755Z,8.23
2018-12-31T11:53:18.961Z,6.80
2018-12-31T11:55:49.091Z,7.30
2018-12-31T11:58:18.956Z,6.60
2018-12-31T12:00:48.776Z,7.13
2018-12-31T12:03:18.650Z,7.70
2018-12-31T12:05:49.105Z,6.63
2018-12-31T12:08:19.266Z,8.23
2018-12-31T12:10:49.147Z,8.20
2018-12-31T12:13:18.993Z,7.00
2018-12-31T12:15:48.851Z,7.57
2018-12-31T12:18:19.030Z,8.13
2018-12-31T12:20:48.885Z,8.40
2018-12-31T12:23:18.728Z,8.70
2018-12-31T12:25:48.598Z,9.10
2018-12-31T12:28:18.448Z,7.93
2018-12-31T12:30:48.277Z,7.30
2018-12-31T12:33:18.399Z,7.73
2018-12-31T12:35:48.226Z,7.47
2018-12-31T12:38:18.426Z,7.40
2018-12-31T12:40:48.282Z,6.43
2018-12-31T12:43:18.133Z,6.20
2018-12-31T12:45:48.006Z,5.50
2018-12-31T12:48:18.308Z,7.30
2018-12-31T12:50:48.146Z,6.10
2018-12-31T12:53:18.353Z,7.47
2018-12-31T12:55:48.575Z,6.00
2018-12-31T12:58:18.435Z,6.00
2018-12-31T13:00:48.341Z,5.90
2018-12-31T13:03:18.531Z,7.70
2018-12-31T13:05:48.395Z,7.47
2018-12-31T13:08:18.244Z,7.57
2018-12-31T13:10:48.476Z,7.30
2018-12-31T13:13:18.857Z,7.60
2018-12-31T13:15:49.088Z,7.97
2018-12-31T13:18:19.483Z,8.07
2018-12-31T13:20:49.395Z,7.87
2018-12-31T13:23:19.607Z,7.23
2018-12-31T13:25:49.674Z,8.23
2018-12-31T13:28:19.859Z,10.33
2018-12-31T13:30:49.788Z,10.97
2018-12-31T13:33:20.083Z,8.57
2018-12-31T13:35:50.410Z,9.27
2018-12-31T13:38:20.322Z,11.87
2018-12-31T13:40:50.540Z,9.27
2018-12-31T13:43:20.775Z,8.37
2018-12-31T13:45:50.965Z,9.10
2018-12-31T13:48:20.871Z,8.73
2018-12-31T13:50:50.992Z,16.53
2018-12-31T13:53:21.254Z,8.20
2018-12-31T13:55:51.133Z,7.00
2018-12-31T13:58:21.031Z,8.37
2018-12-31T14:00:51.580Z,5.87
2018-12-31T14:03:21.471Z,6.33
2018-12-31T14:05:51.351Z,7.17
2018-12-31T14:08:21.527Z,5.50
2018-12-31T14:10:52.056Z,4.70
2018-12-31T14:13:22.814Z,6.13
2018-12-31T14:15:52.762Z,5.70
2018-12-31T14:18:22.907Z,5.47
2018-12-31T14:20:52.821Z,5.57
2018-12-31T14:23:23.030Z,6.23
2018-12-31T14:25:53.312Z,6.23
2018-12-31T14:28:23.987Z,6.13
2018-12-31T14:30:54.376Z,7.30
2018-12-31T14:33:25.715Z,6.33
2018-12-31T14:35:55.695Z,6.60
2018-12-31T14:38:25.976Z,6.53
2018-12-31T14:40:55.946Z,7.33
2018-12-31T14:43:25.952Z,7.57
2018-12-31T14:45:56.582Z,7.60
2018-12-31T14:48:27.331Z,7.77
2018-12-31T14:50:57.309Z,7.50
2018-12-31T14:53:27.789Z,7.80
2018-12-31T14:55:59.759Z,7.77
2018-12-31T14:58:30.616Z,8.07
2018-12-31T15:01:00.799Z,7.70
2018-12-31T15:03:31.753Z,8.30
2018-12-31T15:06:01.743Z,8.07
2018-12-31T15:08:31.682Z,11.13
2018-12-31T15:11:02.106Z,11.43
2018-12-31T15:13:32.293Z,10.93
2018-12-31T15:16:02.305Z,9.73
2018-12-31T15:18:33.200Z,10.07
2018-12-31T15:21:03.334Z,9.17
2018-12-31T15:23:33.291Z,13.17
2018-12-31T15:26:04.048Z,23.67
2018-12-31T15:28:34.060Z,13.50
2018-12-31T15:31:04.711Z,9.03
2018-12-31T15:33:34.643Z,10.20
2018-12-31T15:36:04.967Z,9.40
2018-12-31T15:38:34.937Z,8.77
2018-12-31T15:41:07.939Z,8.70
2018-12-31T15:43:38.339Z,8.30
2018-12-31T15:46:09.032Z,10.03
2018-12-31T15:48:41.902Z,11.53
2018-12-31T15:51:15.194Z,12.17
2018-12-31T15:53:45.154Z,11.47
2018-12-31T15:56:15.062Z,9.53
2018-12-31T15:58:45.009Z,9.70
2018-12-31T16:01:15.423Z,10.77
2018-12-31T16:03:45.706Z,12.40
2018-12-31T16:06:15.649Z,10.37
2018-12-31T16:08:45.640Z,9.80
2018-12-31T16:11:15.620Z,10.97
2018-12-31T16:13:45.534Z,15.30
2018-12-31T16:16:15.404Z,37.10
2018-12-31T16:18:45.401Z,57.50
2018-12-31T16:21:16.344Z,160.83
2018-12-31T16:23:46.478Z,46.20
2018-12-31T16:26:16.719Z,19.03
2018-12-31T16:28:46.596Z,16.40
2018-12-31T16:31:16.489Z,17.10
2018-12-31T16:33:46.376Z,16.17
2018-12-31T16:36:16.251Z,13.83
2018-12-31T16:38:46.736Z,12.20
2018-12-31T16:41:16.563Z,12.40
2018-12-31T16:43:46.521Z,88.10
2018-12-31T16:46:16.420Z,27.57
2018-12-31T16:48:46.402Z,11.03
2018-12-31T16:51:16.263Z,12.67
2018-12-31T16:53:46.136Z,10.90
2018-12-31T16:56:16.377Z,11.60
2018-12-31T16:58:46.484Z,10.40
2018-12-31T17:01:16.556Z,12.20
2018-12-31T17:03:46.397Z,12.20
2018-12-31T17:06:16.235Z,13.17
2018-12-31T17:08:46.116Z,12.47
2018-12-31T17:11:16.331Z,15.57
2018-12-31T17:13:46.186Z,13.67
2018-12-31T17:16:16.025Z,13.10
2018-12-31T17:18:46.238Z,72.77
2018-12-31T17:21:16.131Z,50.73
2018-12-31T17:23:46.021Z,17.73
2018-12-31T17:26:16.329Z,13.80
2018-12-31T17:28:46.203Z,16.17
2018-12-31T17:31:16.040Z,14.20
2018-12-31T17:33:45.909Z,15.80
2018-12-31T17:36:15.809Z,18.50
2018-12-31T17:38:45.695Z,19.30
2018-12-31T17:41:15.595Z,22.13
2018-12-31T17:43:45.449Z,25.00
2018-12-31T17:46:15.315Z,28.83
2018-12-31T17:48:45.161Z,34.03
2018-12-31T17:51:15.406Z,54.33
2018-12-31T17:53:45.340Z,32.00
2018-12-31T17:56:15.200Z,51.87
2018-12-31T17:58:45.082Z,29.53
2018-12-31T18:01:14.958Z,34.90
2018-12-31T18:03:44.863Z,28.47
2018-12-31T18:06:14.781Z,36.63
2018-12-31T18:08:44.629Z,29.73
2018-12-31T18:11:14.491Z,27.03
2018-12-31T18:13:44.600Z,27.40
2018-12-31T18:16:14.509Z,57.50
2018-12-31T18:18:44.374Z,31.17
2018-12-31T18:21:14.199Z,28.17
2018-12-31T18:23:44.075Z,30.57
2018-12-31T18:26:14.007Z,27.07
2018-12-31T18:28:43.919Z,31.20
2018-12-31T18:31:13.806Z,27.77
2018-12-31T18:33:43.890Z,28.83
2018-12-31T18:36:14.037Z,24.77
2018-12-31T18:38:43.972Z,26.30
2018-12-31T18:41:13.887Z,24.97
2018-12-31T18:43:43.798Z,29.20
2018-12-31T18:46:13.611Z,45.40
2018-12-31T18:48:43.577Z,22.40
2018-12-31T18:51:13.415Z,22.03
2018-12-31T18:53:43.560Z,23.07
2018-12-31T18:56:13.762Z,20.40
2018-12-31T18:58:43.948Z,21.83
2018-12-31T19:01:14.501Z,20.10
2018-12-31T19:03:44.369Z,21.60
2018-12-31T19:06:14.385Z,20.37
2018-12-31T19:08:44.195Z,23.07
2018-12-31T19:11:14.591Z,20.83
2018-12-31T19:13:44.435Z,22.27
2018-12-31T19:16:14.322Z,22.47
2018-12-31T19:18:44.345Z,25.10
2018-12-31T19:21:14.263Z,21.10
2018-12-31T19:23:44.126Z,18.17
2018-12-31T19:26:13.997Z,20.50
2018-12-31T19:28:43.916Z,16.43
2018-12-31T19:31:13.823Z,16.13
2018-12-31T19:33:43.810Z,15.57
2018-12-31T19:36:13.735Z,16.00
2018-12-31T19:38:43.588Z,18.00
2018-12-31T19:41:13.904Z,15.93
2018-12-31T19:43:44.092Z,16.73
2018-12-31T19:46:13.999Z,17.03
2018-12-31T19:48:44.338Z,19.00
2018-12-31T19:51:14.197Z,20.00
2018-12-31T19:53:44.257Z,18.20
2018-12-31T19:56:14.140Z,20.83
2018-12-31T19:58:44.054Z,18.33
2018-12-31T20:01:14.203Z,18.37
2018-12-31T20:03:44.049Z,21.93
2018-12-31T20:06:13.973Z,20.97
2018-12-31T20:08:43.817Z,21.80
2018-12-31T20:11:13.697Z,23.03
2018-12-31T20:13:43.540Z,34.87
2018-12-31T20:16:13.432Z,32.37
2018-12-31T20:18:43.386Z,32.27
2018-12-31T20:21:13.299Z,60.33
2018-12-31T20:23:43.252Z,34.53
2018-12-31T20:26:13.130Z,29.93
2018-12-31T20:28:43.770Z,55.67
2018-12-31T20:31:13.659Z,33.53
2018-12-31T20:33:44.634Z,32.43
2018-12-31T20:36:14.498Z,34.77
2018-12-31T20:38:44.706Z,40.13
2018-12-31T20:41:14.600Z,31.10
2018-12-31T20:43:44.557Z,31.70
2018-12-31T20:46:14.373Z,27.70
2018-12-31T20:48:44.257Z,32.37
2018-12-31T20:51:14.392Z,29.60
2018-12-31T20:53:44.576Z,25.17
2018-12-31T20:56:15.108Z,26.10
2018-12-31T20:58:45.018Z,26.83
2018-12-31T21:01:15.135Z,30.27
2018-12-31T21:03:45.283Z,30.83
2018-12-31T21:06:15.171Z,30.50
2018-12-31T21:08:45.292Z,29.20
2018-12-31T21:11:15.842Z,33.27
2018-12-31T21:13:45.694Z,46.60
2018-12-31T21:16:15.573Z,77.07
2018-12-31T21:18:45.794Z,30.77
2018-12-31T21:21:16.663Z,39.30
2018-12-31T21:23:46.662Z,36.67
2018-12-31T21:26:16.516Z,39.13
2018-12-31T21:28:46.760Z,40.10
2018-12-31T21:31:16.609Z,42.20
2018-12-31T21:33:46.472Z,36.90
2018-12-31T21:36:16.541Z,32.77
2018-12-31T21:38:46.389Z,32.50
2018-12-31T21:41:16.319Z,28.50
2018-12-31T21:43:46.459Z,32.70
2018-12-31T21:46:16.368Z,82.50
2018-12-31T21:48:46.277Z,35.80
2018-12-31T21:51:16.143Z,31.33
2018-12-31T21:53:46.042Z,33.70
2018-12-31T21:56:20.038Z,31.37
2018-12-31T21:58:49.915Z,26.80
2018-12-31T22:01:19.760Z,34.50
2018-12-31T22:03:50.480Z,24.70
2018-12-31T22:06:20.315Z,41.17
2018-12-31T22:08:50.495Z,39.97
2018-12-31T22:11:21.067Z,29.60
2018-12-31T22:13:50.951Z,41.67
2018-12-31T22:16:22.245Z,30.97
2018-12-31T22:18:52.078Z,33.33
2018-12-31T22:21:21.943Z,31.83
2018-12-31T22:23:52.467Z,27.73
2018-12-31T22:26:22.351Z,28.67
2018-12-31T22:28:52.217Z,27.57
2018-12-31T22:31:22.152Z,24.20
2018-12-31T22:33:51.995Z,36.40
2018-12-31T22:36:21.853Z,23.33
2018-12-31T22:38:51.881Z,26.40
2018-12-31T22:41:22.154Z,36.47
2018-12-31T22:43:52.723Z,24.70
2018-12-31T22:46:22.953Z,26.80
2018-12-31T22:48:52.844Z,30.67
2018-12-31T22:51:23.054Z,27.40
2018-12-31T22:53:53.283Z,26.17
2018-12-31T22:56:23.197Z,36.97
2018-12-31T22:58:53.073Z,29.87
2018-12-31T23:01:23.230Z,27.30
2018-12-31T23:03:54.269Z,40.03
2018-12-31T23:06:24.621Z,29.80
2018-12-31T23:09:15.234Z,34.07
2018-12-31T23:12:04.439Z,31.87
2018-12-31T23:14:54.002Z,49.30
2018-12-31T23:17:36.276Z,45.20
2018-12-31T23:20:25.440Z,46.90
2018-12-31T23:23:14.546Z,39.53
2018-12-31T23:26:03.688Z,35.17
2018-12-31T23:28:52.933Z,29.03
2018-12-31T23:31:43.844Z,29.20
2018-12-31T23:34:32.952Z,30.57
2018-12-31T23:37:22.032Z,32.60
2018-12-31T23:40:11.125Z,40.37
2018-12-31T23:43:06.368Z,43.07
2018-12-31T23:45:51.110Z,42.33
2018-12-31T23:48:40.248Z,40.20
2018-12-31T23:51:29.386Z,44.70
2018-12-31T23:54:18.515Z,40.63
2018-12-31T23:57:07.649Z,47.40
2018-12-31T23:59:56.727Z,53.20
